Emei Shan, China
Current Conditions -  °F | °C
As of 5:00 PM on Friday 24 Oct 2014 (Local Time) from ZUUU Reporting Station
Haze Haze  
Wind Chill: 70°   Ceiling: Unl
Heat Index: 70°   Visibility: 1.8mi
Dew Point: 61°   Wind: 2mph
Humidity: 73%   Direction: 360°N
Pressure: 30"   Gusts: NA
Location:  29.52°N, 103.33°E
Report Text: ZUUU 240900Z 36001MPS 3000 BR FEW040 21/16 Q1016 NOSIG
Loading
Personal Weather Stations






























Interactive Weather Map
Tropical Storm Tracking
New forecast layout! Learn more

10-Day Weather Forecast

Advertisements
Track Severe Weather on mobile